Terminal Aerodrome Forecast
Issued by NWS

Home | Current Version | Previous Version | Text Only | Print | Product List | Glossary On
Versions: 1 2 3 4 5 6 7 8 9 10 11 12 13 14 15 16 17
000
FTUS45 KTFX 271139 AAB
TAFGTF
TAF AMD
KGTF 271139Z 2712/2812 24010KT P6SM SCT030 BKN060
     FM271700 29013KT P6SM VCSH BKN040
     FM272100 30015G23KT P6SM -SHRA BKN040
     FM280000 32012KT P6SM BKN050 PROB30 2800/2805 4SM -SHRA BKN025
     FM280500 29006KT P6SM BKN025 PROB30 2805/2811 4SM -SHRA BKN015=

USA.gov is the U.S. government's official web portal to all federal, state and local government web resources and services.